Boise (BOI/KBOI)

Map

Destinations

Information

Location
Boise, ID
KBOI -
Bad Timezone: GMT-7
Local Time
GMT Time
00:18 / 12:18 am
Gates
Unassigned
No FAA reported delays
METAR KBOI 222353Z 32008KT 10SM FEW075 SCT100 16/M02 A2983 RMK AO2 SLP093 T01561017 10161 20122 56014
TAF KBOI 222325Z 2300/2324 30008KT P6SM SCT050 BKN090 FM231200 30010KT P6SM SCT070
  • No charts available